Rachel Borchard — V2BW7 — position and weather

sailwx.info

Track history (hours):
 
Tides and Currents Weather Stations Pressure Air Temp Water Temp Dewpoint Dewpoint Depression Visibility Wind Speed Wind Dir Waves Ship Positions

Rachel Borchard

Last reported at 2018-Jan-21 09:03 UTC. Time now 2018-Jan-21 18:50 UTC.
Position N 37°48' E 016°00'.

Length 135 m; draft 8.9 m.

Type: Ship (hazmat cat A). MMSI: 304623000.

Date/timePositionNaut miles runAvg speedWind from/ knotsBaromVisibWave heightAir tempDewpointWater temp
2018-Jan-21 09:03N 37°48' E 016°00'114.6
2018-Jan-21 08:59N 37°48' E 015°59'914.9
2018-Jan-21 08:23N 37°51' E 015°48'614.8
2018-Jan-21 08:00N 37°53' E 015°41'1114.8
2018-Jan-21 07:14N 38°02' E 015°32'415.9
2018-Jan-21 06:59N 38°05' E 015°33'714.9
2018-Jan-21 06:30N 38°12' E 015°36'710.1
2018-Jan-21 05:52N 38°18' E 015°39'514.7
2018-Jan-21 05:31N 38°22' E 015°35'714.8
2018-Jan-21 05:01N 38°27' E 015°28'38313.0
2018-Jan-19 23:36N 43°01' E 009°35'215.3
2018-Jan-19 23:27N 43°03' E 009°35'714.9
2018-Jan-19 23:01N 43°10' E 009°32'714.7
2018-Jan-19 22:31N 43°17' E 009°29'714.2
2018-Jan-19 22:00N 43°23' E 009°25'713.4
2018-Jan-19 21:30N 43°30' E 009°23'714.0
2018-Jan-19 21:00N 43°36' E 009°19'714.3
2018-Jan-19 20:30N 43°43' E 009°16'714.1
2018-Jan-19 20:00N 43°50' E 009°13'714.0
2018-Jan-19 19:30N 43°56' E 009°09'713.9
2018-Jan-19 19:01N 44°03' E 009°06'814.3
2018-Jan-19 18:29N 44°10' E 009°03'714.5
2018-Jan-19 18:00N 44°16' E 008°60'713.7
2018-Jan-19 17:30N 44°23' E 008°57'2 4.7
2018-Jan-19 16:59N 44°24' E 008°54'0 0.0
2018-Jan-19 16:29N 44°24' E 008°54'0 0.0
2018-Jan-19 15:53N 44°24' E 008°54'0 0.0
2018-Jan-19 15:19N 44°24' E 008°54'0 0.0
2018-Jan-19 14:58N 44°24' E 008°54'0 0.0
2018-Jan-19 14:28N 44°24' E 008°54'0 0.0
2018-Jan-19 13:58N 44°24' E 008°54'0 0.0
2018-Jan-19 13:25N 44°24' E 008°54'0 0.0
2018-Jan-19 12:51N 44°24' E 008°54'0 0.0
2018-Jan-19 12:30N 44°24' E 008°54'0 0.1
2018-Jan-19 12:00N 44°24' E 008°54'3 6.4
2018-Jan-19 11:30N 44°22' E 008°58'5 9.9
2018-Jan-19 11:00N 44°18' E 008°60'1 2.9
2018-Jan-19 10:30N 44°16' E 008°60'3 5.5
2018-Jan-19 10:01N 44°17' E 008°56'510.6
2018-Jan-19 09:30N 44°14' E 008°50'610.8
2018-Jan-19 08:59N 44°10' E 008°45'6610.7
2018-Jan-19 02:51N 43°29' E 007°34'610.7
2018-Jan-19 02:17N 43°25' E 007°27'310.6
2018-Jan-19 02:00N 43°23' E 007°24'510.7
2018-Jan-19 01:30N 43°20' E 007°18'611.2
2018-Jan-19 01:00N 43°17' E 007°11'611.2
2018-Jan-19 00:30N 43°14' E 007°05'  
2018-Jan-11 23:29N 35°54' W 005°57'5 9.6
2018-Jan-11 23:00N 35°57' W 005°52'812.8
2018-Jan-11 22:23N 35°57' W 005°43'411.6
2018-Jan-11 22:00N 35°57' W 005°37'612.2
2018-Jan-11 21:30N 35°59' W 005°30'613.2
2018-Jan-11 21:01N 36°01' W 005°22'611.4
2018-Jan-11 20:30N 36°03' W 005°15'5 8.7
2018-Jan-11 19:58N 36°04' W 005°10'4 8.3
2018-Jan-11 19:26N 36°05' W 005°05'4 8.0
2018-Jan-11 19:00N 36°05' W 005°00'4 8.7
2018-Jan-11 18:30N 36°06' W 004°55'5 9.2
2018-Jan-11 17:58N 36°07' W 004°49'510.0
2018-Jan-11 17:28N 36°07' W 004°43'510.0
2018-Jan-11 16:59N 36°08' W 004°37'5 9.2
2018-Jan-11 16:27N 36°09' W 004°31'  
Track history (hours):
 
Tides and Currents Weather Stations Pressure Air Temp Water Temp Dewpoint Dewpoint Depression Visibility Wind Speed Wind Dir Waves Ship Positions

Rachel Borchard

Last reported at 2018-Jan-21 09:03 UTC. Time now 2018-Jan-21 18:50 UTC.
Position N 37°48' E 016°00'.

Length 135 m; draft 8.9 m.

Type: Ship (hazmat cat A). MMSI: 304623000.

Date/timePositionNaut miles runAvg speedWind from/ knotsBaromVisibWave heightAir tempDewpointWater temp
2018-Jan-21 09:03N 37°48' E 016°00'114.6
2018-Jan-21 08:59N 37°48' E 015°59'914.9
2018-Jan-21 08:23N 37°51' E 015°48'614.8
2018-Jan-21 08:00N 37°53' E 015°41'1114.8
2018-Jan-21 07:14N 38°02' E 015°32'415.9
2018-Jan-21 06:59N 38°05' E 015°33'714.9
2018-Jan-21 06:30N 38°12' E 015°36'710.1
2018-Jan-21 05:52N 38°18' E 015°39'514.7
2018-Jan-21 05:31N 38°22' E 015°35'714.8
2018-Jan-21 05:01N 38°27' E 015°28'38313.0
2018-Jan-19 23:36N 43°01' E 009°35'215.3
2018-Jan-19 23:27N 43°03' E 009°35'714.9
2018-Jan-19 23:01N 43°10' E 009°32'714.7
2018-Jan-19 22:31N 43°17' E 009°29'714.2
2018-Jan-19 22:00N 43°23' E 009°25'713.4
2018-Jan-19 21:30N 43°30' E 009°23'714.0
2018-Jan-19 21:00N 43°36' E 009°19'714.3
2018-Jan-19 20:30N 43°43' E 009°16'714.1
2018-Jan-19 20:00N 43°50' E 009°13'714.0
2018-Jan-19 19:30N 43°56' E 009°09'713.9
2018-Jan-19 19:01N 44°03' E 009°06'814.3
2018-Jan-19 18:29N 44°10' E 009°03'714.5
2018-Jan-19 18:00N 44°16' E 008°60'713.7
2018-Jan-19 17:30N 44°23' E 008°57'2 4.7
2018-Jan-19 16:59N 44°24' E 008°54'0 0.0
2018-Jan-19 16:29N 44°24' E 008°54'0 0.0
2018-Jan-19 15:53N 44°24' E 008°54'0 0.0
2018-Jan-19 15:19N 44°24' E 008°54'0 0.0
2018-Jan-19 14:58N 44°24' E 008°54'0 0.0
2018-Jan-19 14:28N 44°24' E 008°54'0 0.0
2018-Jan-19 13:58N 44°24' E 008°54'0 0.0
2018-Jan-19 13:25N 44°24' E 008°54'0 0.0
2018-Jan-19 12:51N 44°24' E 008°54'0 0.0
2018-Jan-19 12:30N 44°24' E 008°54'0 0.1
2018-Jan-19 12:00N 44°24' E 008°54'3 6.4
2018-Jan-19 11:30N 44°22' E 008°58'5 9.9
2018-Jan-19 11:00N 44°18' E 008°60'1 2.9
2018-Jan-19 10:30N 44°16' E 008°60'3 5.5
2018-Jan-19 10:01N 44°17' E 008°56'510.6
2018-Jan-19 09:30N 44°14' E 008°50'610.8
2018-Jan-19 08:59N 44°10' E 008°45'6610.7
2018-Jan-19 02:51N 43°29' E 007°34'610.7
2018-Jan-19 02:17N 43°25' E 007°27'310.6
2018-Jan-19 02:00N 43°23' E 007°24'510.7
2018-Jan-19 01:30N 43°20' E 007°18'611.2
2018-Jan-19 01:00N 43°17' E 007°11'611.2
2018-Jan-19 00:30N 43°14' E 007°05'  
2018-Jan-11 23:29N 35°54' W 005°57'5 9.6
2018-Jan-11 23:00N 35°57' W 005°52'812.8
2018-Jan-11 22:23N 35°57' W 005°43'411.6
2018-Jan-11 22:00N 35°57' W 005°37'612.2
2018-Jan-11 21:30N 35°59' W 005°30'613.2
2018-Jan-11 21:01N 36°01' W 005°22'611.4
2018-Jan-11 20:30N 36°03' W 005°15'5 8.7
2018-Jan-11 19:58N 36°04' W 005°10'4 8.3
2018-Jan-11 19:26N 36°05' W 005°05'4 8.0
2018-Jan-11 19:00N 36°05' W 005°00'4 8.7
2018-Jan-11 18:30N 36°06' W 004°55'5 9.2
2018-Jan-11 17:58N 36°07' W 004°49'510.0
2018-Jan-11 17:28N 36°07' W 004°43'510.0
2018-Jan-11 16:59N 36°08' W 004°37'5 9.2
2018-Jan-11 16:27N 36°09' W 004°31'  

Dump ship's entire track history